createdAt,value
2018-03-17T00:00:17.230Z,1014.35
2018-03-17T00:01:26.094Z,1014.4
2018-03-17T00:02:35.194Z,1014.48
2018-03-17T00:03:44.019Z,1014.46
2018-03-17T00:04:52.842Z,1014.42
2018-03-17T00:06:01.668Z,1014.4
2018-03-17T00:07:10.641Z,1014.47
2018-03-17T00:08:19.465Z,1014.35
2018-03-17T00:09:28.302Z,1014.29
2018-03-17T00:10:37.441Z,1014.46
2018-03-17T00:11:46.269Z,1014.49
2018-03-17T00:12:55.196Z,1014.45
2018-03-17T00:14:04.021Z,1014.46
2018-03-17T00:15:12.843Z,1014.44
2018-03-17T00:16:21.944Z,1014.53
2018-03-17T00:17:30.769Z,1014.48
2018-03-17T00:18:39.693Z,1014.46
2018-03-17T00:19:48.517Z,1014.52
2018-03-17T00:20:57.342Z,1014.56
2018-03-17T00:22:06.442Z,1014.49
2018-03-17T00:23:15.270Z,1014.53
2018-03-17T00:24:24.470Z,1014.6
2018-03-17T00:25:33.619Z,1014.56
2018-03-17T00:26:42.393Z,1014.51
2018-03-17T00:27:51.495Z,1014.65
2018-03-17T00:29:00.319Z,1014.62
2018-03-17T00:30:09.396Z,1014.59
2018-03-17T00:31:18.220Z,1014.63
2018-03-17T00:32:27.049Z,1014.54
2018-03-17T00:33:35.870Z,1014.57
2018-03-17T00:34:44.693Z,1014.55
2018-03-17T00:35:53.519Z,1014.51
2018-03-17T00:37:02.346Z,1014.54
2018-03-17T00:38:11.171Z,1014.5
2018-03-17T00:39:19.997Z,1014.54
2018-03-17T00:40:28.821Z,1014.54
2018-03-17T00:41:37.646Z,1014.53
2018-03-17T00:42:46.471Z,1014.47
2018-03-17T00:43:55.297Z,1014.51
2018-03-17T00:45:04.124Z,1014.48
2018-03-17T00:46:13.227Z,1014.5
2018-03-17T00:47:22.114Z,1014.59
2018-03-17T00:48:30.931Z,1014.57
2018-03-17T00:49:39.754Z,1014.63
2018-03-17T00:50:48.579Z,1014.59
2018-03-17T00:51:57.462Z,1014.66
2018-03-17T00:53:06.229Z,1014.5
2018-03-17T00:54:15.053Z,1014.62
2018-03-17T00:55:23.876Z,1014.5
2018-03-17T00:56:32.709Z,1014.48
2018-03-17T00:57:41.530Z,1014.64
2018-03-17T00:58:50.755Z,1014.51
2018-03-17T00:59:59.582Z,1014.56
2018-03-17T01:01:08.406Z,1014.45
2018-03-17T01:02:17.233Z,1014.57
2018-03-17T01:03:26.058Z,1014.6
2018-03-17T01:04:35.033Z,1014.58
2018-03-17T01:05:43.861Z,1014.58
2018-03-17T01:06:52.680Z,1014.67
2018-03-17T01:08:01.505Z,1014.64
2018-03-17T01:09:10.329Z,1014.51
2018-03-17T01:10:19.729Z,1014.68
2018-03-17T01:11:28.834Z,1014.61
2018-03-17T01:12:37.659Z,1014.57
2018-03-17T01:13:46.764Z,1014.73
2018-03-17T01:14:55.588Z,1014.62
2018-03-17T01:16:04.514Z,1014.59
2018-03-17T01:17:13.338Z,1014.51
2018-03-17T01:18:22.161Z,1014.59
2018-03-17T01:19:31.313Z,1014.45
2018-03-17T01:20:40.139Z,1014.52
2018-03-17T01:21:49.112Z,1014.63
2018-03-17T01:22:58.212Z,1014.71
2018-03-17T01:24:07.037Z,1014.58
2018-03-17T01:25:15.860Z,1014.49
2018-03-17T01:26:24.683Z,1014.55
2018-03-17T01:27:33.509Z,1014.53
2018-03-17T01:28:42.333Z,1014.51
2018-03-17T01:29:51.158Z,1014.5
2018-03-17T01:30:59.995Z,1014.43
2018-03-17T01:32:08.820Z,1014.35
2018-03-17T01:33:18.070Z,1014.36
2018-03-17T01:34:26.895Z,1014.43
2018-03-17T01:35:35.721Z,1014.43
2018-03-17T01:36:44.545Z,1014.43
2018-03-17T01:37:53.370Z,1014.42
2018-03-17T01:39:02.298Z,1014.39
2018-03-17T01:40:11.125Z,1014.36
2018-03-17T01:41:19.948Z,1014.2
2018-03-17T01:42:29.046Z,1014.32
2018-03-17T01:43:37.876Z,1014.22
2018-03-17T01:44:47.222Z,1014.32
2018-03-17T01:45:56.046Z,1014.29
2018-03-17T01:47:04.868Z,1014.35
2018-03-17T01:48:13.693Z,1014.16
2018-03-17T01:49:22.517Z,1014.32
2018-03-17T01:50:31.494Z,1014.18
2018-03-17T01:51:40.318Z,1014.37
2018-03-17T01:52:49.143Z,1014.3
2018-03-17T01:53:58.245Z,1014.25
2018-03-17T01:55:07.346Z,1014.06
2018-03-17T01:56:16.276Z,1014.08
2018-03-17T01:57:25.044Z,1014.23
2018-03-17T01:58:33.868Z,1014.15
2018-03-17T01:59:42.691Z,1014.19
2018-03-17T02:00:51.515Z,1014.11
2018-03-17T02:02:00.338Z,1014.31
2018-03-17T02:03:09.162Z,1014.18
2018-03-17T02:04:17.986Z,1014.13
2018-03-17T02:05:27.088Z,1014.21
2018-03-17T02:06:36.194Z,1014.11
2018-03-17T02:07:45.171Z,1014.05
2018-03-17T02:08:53.995Z,1014.08
2018-03-17T02:10:02.819Z,1014.11
2018-03-17T02:11:11.648Z,1014.07
2018-03-17T02:12:20.469Z,1014
2018-03-17T02:13:29.291Z,1014.07
2018-03-17T02:14:38.394Z,1014.02
2018-03-17T02:15:47.216Z,1014.01
2018-03-17T02:16:56.040Z,1014.05
2018-03-17T02:18:04.864Z,1013.95
2018-03-17T02:19:13.968Z,1013.91
2018-03-17T02:20:22.791Z,1013.99
2018-03-17T02:21:31.662Z,1013.95
2018-03-17T02:22:40.485Z,1013.96
2018-03-17T02:23:49.311Z,1013.98
2018-03-17T02:24:58.236Z,1014
2018-03-17T02:26:07.061Z,1013.96
2018-03-17T02:27:15.890Z,1013.92
2018-03-17T02:28:24.719Z,1014.09
2018-03-17T02:29:33.536Z,1013.89
2018-03-17T02:30:42.413Z,1013.92
2018-03-17T02:31:51.240Z,1014.03
2018-03-17T02:33:00.066Z,1013.97
2018-03-17T02:34:08.891Z,1014.06
2018-03-17T02:35:17.716Z,1013.98
2018-03-17T02:36:26.611Z,1013.94
2018-03-17T02:37:35.709Z,1014
2018-03-17T02:38:44.533Z,1014.01
2018-03-17T02:39:53.636Z,1013.96
2018-03-17T02:41:02.743Z,1013.94
2018-03-17T02:42:11.865Z,1013.99
2018-03-17T02:43:21.249Z,1013.96
2018-03-17T02:44:30.357Z,1013.97
2018-03-17T02:45:39.191Z,1013.92
2018-03-17T02:46:48.009Z,1013.95
2018-03-17T02:47:57.164Z,1013.91
2018-03-17T02:49:05.989Z,1013.95
2018-03-17T02:50:14.811Z,1014.02
2018-03-17T02:51:23.635Z,1013.98
2018-03-17T02:52:32.525Z,1013.98
2018-03-17T02:53:41.337Z,1013.86
2018-03-17T02:54:50.160Z,1013.96
2018-03-17T02:55:58.984Z,1013.95
2018-03-17T02:57:07.808Z,1013.95
2018-03-17T02:58:16.647Z,1014.03
2018-03-17T02:59:25.480Z,1014.02
2018-03-17T03:00:34.318Z,1013.83
2018-03-17T03:01:43.141Z,1013.92
2018-03-17T03:02:51.973Z,1013.91
2018-03-17T03:04:00.791Z,1013.85
2018-03-17T03:05:09.764Z,1013.99
2018-03-17T03:06:19.151Z,1013.93
2018-03-17T03:07:27.983Z,1014.11
2018-03-17T03:08:36.807Z,1014.04
2018-03-17T03:09:45.634Z,1014
2018-03-17T03:10:54.509Z,1014.02
2018-03-17T03:12:03.332Z,1013.95
2018-03-17T03:13:12.157Z,1013.95
2018-03-17T03:14:20.983Z,1014.01
2018-03-17T03:15:29.812Z,1013.96
2018-03-17T03:16:39.188Z,1013.98
2018-03-17T03:17:48.013Z,1013.98
2018-03-17T03:18:56.836Z,1013.9
2018-03-17T03:20:05.660Z,1014.02
2018-03-17T03:21:14.486Z,1013.99
2018-03-17T03:22:23.317Z,1014.02
2018-03-17T03:23:32.178Z,1014
2018-03-17T03:24:40.956Z,1014.03
2018-03-17T03:25:49.778Z,1013.93
2018-03-17T03:26:58.877Z,1013.96
2018-03-17T03:28:08.005Z,1013.89
2018-03-17T03:29:17.125Z,1014
2018-03-17T03:30:25.943Z,1013.98
2018-03-17T03:31:34.790Z,1014.07
2018-03-17T03:32:43.625Z,1013.97
2018-03-17T03:33:52.448Z,1013.97
2018-03-17T03:35:01.270Z,1014.09
2018-03-17T03:36:10.095Z,1014.08
2018-03-17T03:37:18.918Z,1014.04
2018-03-17T03:38:27.740Z,1014.02
2018-03-17T03:39:36.722Z,1014.08
2018-03-17T03:40:45.823Z,1014.07
2018-03-17T03:41:54.650Z,1014.21
2018-03-17T03:43:03.473Z,1014.05
2018-03-17T03:44:12.297Z,1014.05
2018-03-17T03:45:21.118Z,1014.03
2018-03-17T03:46:29.941Z,1014.11
2018-03-17T03:47:38.764Z,1014.06
2018-03-17T03:48:47.587Z,1014.12
2018-03-17T03:49:56.411Z,1013.99
2018-03-17T03:51:05.338Z,1014
2018-03-17T03:52:14.175Z,1013.96
2018-03-17T03:53:23.269Z,1014.05
2018-03-17T03:54:32.368Z,1014.06
2018-03-17T03:55:41.193Z,1014.11
2018-03-17T03:56:50.065Z,1014.06
2018-03-17T03:57:58.891Z,1014.09
2018-03-17T03:59:07.714Z,1013.96
2018-03-17T04:00:16.537Z,1014.03
2018-03-17T04:01:25.360Z,1014.07
2018-03-17T04:02:34.768Z,1014.03
2018-03-17T04:03:43.590Z,1014.14
2018-03-17T04:04:52.416Z,1014.09
2018-03-17T04:06:01.238Z,1014.04
2018-03-17T04:07:10.061Z,1013.96
2018-03-17T04:08:18.886Z,1014.1
2018-03-17T04:09:27.709Z,1014.08
2018-03-17T04:10:36.536Z,1014.03
2018-03-17T04:11:45.356Z,1014.05
2018-03-17T04:12:54.179Z,1014.07
2018-03-17T04:14:03.154Z,1014.14
2018-03-17T04:15:11.976Z,1014.03
2018-03-17T04:16:21.243Z,1013.96
2018-03-17T04:17:30.066Z,1014.12
2018-03-17T04:18:38.892Z,1014.2
2018-03-17T04:19:47.816Z,1014.07
2018-03-17T04:20:56.640Z,1014.16
2018-03-17T04:22:05.462Z,1014.1
2018-03-17T04:23:14.285Z,1014.01
2018-03-17T04:24:23.107Z,1014.12
2018-03-17T04:25:31.932Z,1014.18
2018-03-17T04:26:40.754Z,1014
2018-03-17T04:27:49.577Z,1014.09
2018-03-17T04:28:58.399Z,1014.12
2018-03-17T04:30:07.220Z,1014.34
2018-03-17T04:31:16.316Z,1014.14
2018-03-17T04:32:25.138Z,1014.24
2018-03-17T04:33:33.961Z,1014.13
2018-03-17T04:34:42.786Z,1014.13
2018-03-17T04:35:51.609Z,1014.25
2018-03-17T04:37:00.436Z,1014.28
2018-03-17T04:38:09.259Z,1014.3
2018-03-17T04:39:18.085Z,1014.05
2018-03-17T04:40:27.189Z,1014.21
2018-03-17T04:41:36.010Z,1014.19
2018-03-17T04:42:44.986Z,1014.31
2018-03-17T04:43:53.812Z,1014.27
2018-03-17T04:45:02.634Z,1014.31
2018-03-17T04:46:11.460Z,1014.4
2018-03-17T04:47:20.302Z,1014.26
2018-03-17T04:48:29.261Z,1014.27
2018-03-17T04:49:38.027Z,1014.37
2018-03-17T04:50:46.850Z,1014.34
2018-03-17T04:51:55.674Z,1014.34
2018-03-17T04:53:04.496Z,1014.31
2018-03-17T04:54:13.369Z,1014.5
2018-03-17T04:55:22.192Z,1014.32
2018-03-17T04:56:31.016Z,1014.46
2018-03-17T04:57:39.840Z,1014.47
2018-03-17T04:58:48.663Z,1014.34
2018-03-17T04:59:57.597Z,1014.46
2018-03-17T05:01:06.357Z,1014.44
2018-03-17T05:02:15.230Z,1014.55
2018-03-17T05:03:24.052Z,1014.39
2018-03-17T05:04:32.875Z,1014.41
2018-03-17T05:05:42.268Z,1014.5
2018-03-17T05:06:51.092Z,1014.47
2018-03-17T05:07:59.914Z,1014.46
2018-03-17T05:09:08.739Z,1014.45
2018-03-17T05:10:17.573Z,1014.43
2018-03-17T05:11:26.693Z,1014.48
2018-03-17T05:12:35.520Z,1014.45
2018-03-17T05:13:44.343Z,1014.45
2018-03-17T05:14:53.165Z,1014.51
2018-03-17T05:16:01.988Z,1014.52
2018-03-17T05:17:10.864Z,1014.52
2018-03-17T05:18:19.687Z,1014.42
2018-03-17T05:19:28.510Z,1014.52
2018-03-17T05:20:37.335Z,1014.62
2018-03-17T05:21:46.157Z,1014.56
2018-03-17T05:22:55.130Z,1014.49
2018-03-17T05:24:04.234Z,1014.61
2018-03-17T05:25:13.060Z,1014.62
2018-03-17T05:26:21.878Z,1014.49
2018-03-17T05:27:30.701Z,1014.52
2018-03-17T05:28:39.623Z,1014.5
2018-03-17T05:29:48.446Z,1014.49
2018-03-17T05:30:57.268Z,1014.49
2018-03-17T05:32:06.370Z,1014.5
2018-03-17T05:33:15.467Z,1014.49
2018-03-17T05:34:24.391Z,1014.43
2018-03-17T05:35:33.224Z,1014.51
2018-03-17T05:36:42.327Z,1014.53
2018-03-17T05:37:51.151Z,1014.39
2018-03-17T05:39:00.263Z,1014.45
2018-03-17T05:40:09.081Z,1014.43
2018-03-17T05:41:17.902Z,1014.54
2018-03-17T05:42:26.726Z,1014.46
2018-03-17T05:43:35.548Z,1014.45
2018-03-17T05:44:44.372Z,1014.5
2018-03-17T05:45:53.295Z,1014.47
2018-03-17T05:47:02.118Z,1014.47
2018-03-17T05:48:10.943Z,1014.42
2018-03-17T05:49:19.766Z,1014.51
2018-03-17T05:50:29.146Z,1014.5
2018-03-17T05:51:37.971Z,1014.55
2018-03-17T05:52:46.791Z,1014.55
2018-03-17T05:53:55.614Z,1014.46
2018-03-17T05:55:04.439Z,1014.58
2018-03-17T05:56:13.262Z,1014.55
2018-03-17T05:57:22.199Z,1014.54
2018-03-17T05:58:31.022Z,1014.61
2018-03-17T05:59:40.145Z,1014.65
2018-03-17T06:00:49.243Z,1014.58
2018-03-17T06:01:58.071Z,1014.59
2018-03-17T06:03:06.893Z,1014.6
2018-03-17T06:04:15.758Z,1014.62
2018-03-17T06:05:24.543Z,1014.55
2018-03-17T06:06:33.366Z,1014.58
2018-03-17T06:07:42.189Z,1014.6
2018-03-17T06:08:51.365Z,1014.6
2018-03-17T06:10:00.190Z,1014.62
2018-03-17T06:11:09.013Z,1014.64
2018-03-17T06:12:17.836Z,1014.59
2018-03-17T06:13:26.660Z,1014.6
2018-03-17T06:14:35.484Z,1014.62
2018-03-17T06:15:44.311Z,1014.67
2018-03-17T06:16:53.133Z,1014.54
2018-03-17T06:18:01.965Z,1014.58
2018-03-17T06:19:10.801Z,1014.47
2018-03-17T06:20:19.605Z,1014.63
2018-03-17T06:21:28.430Z,1014.64
2018-03-17T06:22:37.254Z,1014.67
2018-03-17T06:23:46.076Z,1014.63
2018-03-17T06:24:54.960Z,1014.73
2018-03-17T06:26:03.774Z,1014.69
2018-03-17T06:27:12.595Z,1014.7
2018-03-17T06:28:21.421Z,1014.65
2018-03-17T06:29:30.244Z,1014.61
2018-03-17T06:30:39.067Z,1014.64
2018-03-17T06:31:47.996Z,1014.47
2018-03-17T06:32:56.813Z,1014.65
2018-03-17T06:34:05.638Z,1014.66
2018-03-17T06:35:14.741Z,1014.66
2018-03-17T06:36:23.568Z,1014.77
2018-03-17T06:37:32.435Z,1014.72
2018-03-17T06:38:41.258Z,1014.6
2018-03-17T06:39:50.081Z,1014.65
2018-03-17T06:40:58.903Z,1014.79
2018-03-17T06:42:07.731Z,1014.71
2018-03-17T06:43:16.603Z,1014.78
2018-03-17T06:44:25.427Z,1014.73
2018-03-17T06:45:34.250Z,1014.68
2018-03-17T06:46:43.072Z,1014.63
2018-03-17T06:47:51.897Z,1014.63
2018-03-17T06:49:00.718Z,1014.71
2018-03-17T06:50:09.543Z,1014.61
2018-03-17T06:51:18.368Z,1014.72
2018-03-17T06:52:27.190Z,1014.68
2018-03-17T06:53:36.015Z,1014.61
2018-03-17T06:54:44.890Z,1014.6
2018-03-17T06:55:53.996Z,1014.6
2018-03-17T06:57:02.820Z,1014.52
2018-03-17T06:58:11.644Z,1014.61
2018-03-17T06:59:20.475Z,1014.71
2018-03-17T07:00:29.977Z,1014.62
2018-03-17T07:01:38.800Z,1014.59
2018-03-17T07:02:47.625Z,1014.72
2018-03-17T07:03:56.450Z,1014.67
2018-03-17T07:05:05.275Z,1014.64
2018-03-17T07:06:14.255Z,1014.65
2018-03-17T07:07:23.074Z,1014.72
2018-03-17T07:08:31.898Z,1014.69
2018-03-17T07:09:40.722Z,1014.71
2018-03-17T07:10:49.545Z,1014.67
2018-03-17T07:11:58.769Z,1014.65
2018-03-17T07:13:07.594Z,1014.65
2018-03-17T07:14:16.419Z,1014.59
2018-03-17T07:15:25.243Z,1014.74
2018-03-17T07:16:34.066Z,1014.69
2018-03-17T07:17:43.290Z,1014.72
2018-03-17T07:18:52.116Z,1014.69
2018-03-17T07:20:00.940Z,1014.73
2018-03-17T07:21:09.765Z,1014.69
2018-03-17T07:22:18.589Z,1014.79
2018-03-17T07:23:27.514Z,1014.67
2018-03-17T07:24:36.337Z,1014.7
2018-03-17T07:25:45.163Z,1014.75
2018-03-17T07:26:53.988Z,1014.85
2018-03-17T07:28:03.092Z,1014.68
2018-03-17T07:29:12.015Z,1014.71
2018-03-17T07:30:20.843Z,1014.7
2018-03-17T07:31:29.937Z,1014.71
2018-03-17T07:32:38.761Z,1014.64
2018-03-17T07:33:47.584Z,1014.7
2018-03-17T07:34:56.561Z,1014.79
2018-03-17T07:36:05.668Z,1014.66
2018-03-17T07:37:14.493Z,1014.68
2018-03-17T07:38:23.595Z,1014.73
2018-03-17T07:39:32.422Z,1014.71
2018-03-17T07:40:41.244Z,1014.72
2018-03-17T07:41:50.072Z,1014.7
2018-03-17T07:42:58.894Z,1014.74
2018-03-17T07:44:07.715Z,1014.73
2018-03-17T07:45:16.544Z,1014.65
2018-03-17T07:46:25.471Z,1014.74
2018-03-17T07:47:34.300Z,1014.75
2018-03-17T07:48:43.125Z,1014.62
2018-03-17T07:49:51.950Z,1014.74
2018-03-17T07:51:00.774Z,1014.66
2018-03-17T07:52:09.647Z,1014.64
2018-03-17T07:53:18.471Z,1014.66
2018-03-17T07:54:27.295Z,1014.65
2018-03-17T07:55:36.119Z,1014.55
2018-03-17T07:56:44.945Z,1014.67
2018-03-17T07:57:54.254Z,1014.6
2018-03-17T07:59:03.080Z,1014.63
2018-03-17T08:00:11.905Z,1014.57
2018-03-17T08:01:20.728Z,1014.51
2018-03-17T08:02:29.551Z,1014.57
2018-03-17T08:03:38.650Z,1014.57
2018-03-17T08:04:47.476Z,1014.52
2018-03-17T08:05:56.304Z,1014.62
2018-03-17T08:07:05.132Z,1014.54
2018-03-17T08:08:13.950Z,1014.6
2018-03-17T08:09:23.365Z,1014.6
2018-03-17T08:10:32.189Z,1014.51
2018-03-17T08:11:41.014Z,1014.52
2018-03-17T08:12:49.839Z,1014.6
2018-03-17T08:13:58.664Z,1014.64
2018-03-17T08:15:07.538Z,1014.56
2018-03-17T08:16:16.371Z,1014.59
2018-03-17T08:17:25.196Z,1014.44
2018-03-17T08:18:34.014Z,1014.52
2018-03-17T08:19:42.840Z,1014.58
2018-03-17T08:20:51.769Z,1014.58
2018-03-17T08:22:00.588Z,1014.55
2018-03-17T08:23:09.412Z,1014.76
2018-03-17T08:24:18.235Z,1014.56
2018-03-17T08:25:27.059Z,1014.51
2018-03-17T08:26:35.884Z,1014.56
2018-03-17T08:27:44.717Z,1014.63
2018-03-17T08:28:53.530Z,1014.63
2018-03-17T08:30:02.356Z,1014.69
2018-03-17T08:31:11.181Z,1014.57
2018-03-17T08:32:20.008Z,1014.56
2018-03-17T08:33:29.117Z,1014.6
2018-03-17T08:34:37.938Z,1014.49
2018-03-17T08:35:46.764Z,1014.56
2018-03-17T08:36:55.584Z,1014.56
2018-03-17T08:38:04.841Z,1014.62
2018-03-17T08:39:13.673Z,1014.54
2018-03-17T08:40:22.493Z,1014.59
2018-03-17T08:41:31.318Z,1014.59
2018-03-17T08:42:40.143Z,1014.59
2018-03-17T08:43:49.017Z,1014.63
2018-03-17T08:44:57.839Z,1014.53
2018-03-17T08:46:06.665Z,1014.68
2018-03-17T08:47:15.495Z,1014.65
2018-03-17T08:48:24.313Z,1014.57
2018-03-17T08:49:33.239Z,1014.6
2018-03-17T08:50:42.065Z,1014.65
2018-03-17T08:51:50.889Z,1014.57
2018-03-17T08:52:59.716Z,1014.52
2018-03-17T08:54:08.538Z,1014.56
2018-03-17T08:55:17.763Z,1014.53
2018-03-17T08:56:26.590Z,1014.57
2018-03-17T08:57:35.415Z,1014.59
2018-03-17T08:58:44.267Z,1014.46
2018-03-17T08:59:53.477Z,1014.52
2018-03-17T09:01:02.910Z,1014.57
2018-03-17T09:02:11.744Z,1014.62
2018-03-17T09:03:20.562Z,1014.51
2018-03-17T09:04:29.388Z,1014.49
2018-03-17T09:05:38.265Z,1014.5
2018-03-17T09:06:47.139Z,1014.35
2018-03-17T09:07:55.967Z,1014.44
2018-03-17T09:09:05.344Z,1014.56
2018-03-17T09:10:14.444Z,1014.53
2018-03-17T09:11:23.543Z,1014.55
2018-03-17T09:12:32.520Z,1014.54
2018-03-17T09:13:41.358Z,1014.59
2018-03-17T09:14:50.486Z,1014.58
2018-03-17T09:15:59.296Z,1014.64
2018-03-17T09:17:08.121Z,1014.69
2018-03-17T09:18:16.997Z,1014.61
2018-03-17T09:19:25.825Z,1014.68
2018-03-17T09:20:34.924Z,1014.61
2018-03-17T09:21:43.750Z,1014.56
2018-03-17T09:22:52.575Z,1014.47
2018-03-17T09:24:01.453Z,1014.53
2018-03-17T09:25:10.561Z,1014.59
2018-03-17T09:26:19.383Z,1014.5
2018-03-17T09:27:28.209Z,1014.53
2018-03-17T09:28:37.041Z,1014.54
2018-03-17T09:29:46.140Z,1014.48
2018-03-17T09:30:55.293Z,1014.6
2018-03-17T09:32:04.118Z,1014.55
2018-03-17T09:33:13.228Z,1014.6
2018-03-17T09:34:22.333Z,1014.52
2018-03-17T09:35:31.203Z,1014.54
2018-03-17T09:36:40.028Z,1014.54
2018-03-17T09:37:48.854Z,1014.61
2018-03-17T09:38:57.681Z,1014.54
2018-03-17T09:40:06.509Z,1014.58
2018-03-17T09:41:15.333Z,1014.64
2018-03-17T09:42:24.156Z,1014.68
2018-03-17T09:43:32.981Z,1014.65
2018-03-17T09:44:41.806Z,1014.68
2018-03-17T09:45:50.633Z,1014.67
2018-03-17T09:46:59.555Z,1014.74
2018-03-17T09:48:08.379Z,1014.68
2018-03-17T09:49:17.203Z,1014.65
2018-03-17T09:50:26.027Z,1014.71
2018-03-17T09:51:34.854Z,1014.7
2018-03-17T09:52:43.733Z,1014.66
2018-03-17T09:53:52.556Z,1014.75
2018-03-17T09:55:01.384Z,1014.62
2018-03-17T09:56:10.212Z,1014.56
2018-03-17T09:57:19.319Z,1014.68
2018-03-17T09:58:28.344Z,1014.73
2018-03-17T09:59:37.453Z,1014.69
2018-03-17T10:00:46.279Z,1014.51
2018-03-17T10:01:55.106Z,1014.54
2018-03-17T10:03:04.210Z,1014.58
2018-03-17T10:04:13.233Z,1014.52
2018-03-17T10:05:22.337Z,1014.56
2018-03-17T10:06:31.163Z,1014.54
2018-03-17T10:07:40.547Z,1014.59
2018-03-17T10:08:49.374Z,1014.59
2018-03-17T10:09:58.499Z,1014.62
2018-03-17T10:11:07.606Z,1014.65
2018-03-17T10:12:16.434Z,1014.49
2018-03-17T10:13:25.259Z,1014.61
2018-03-17T10:14:34.087Z,1014.55
2018-03-17T10:15:43.215Z,1014.51
2018-03-17T10:16:52.048Z,1014.57
2018-03-17T10:18:00.876Z,1014.53
2018-03-17T10:19:09.706Z,1014.51
2018-03-17T10:20:18.543Z,1014.6
2018-03-17T10:21:27.670Z,1014.61
2018-03-17T10:22:36.498Z,1014.52
2018-03-17T10:23:45.326Z,1014.61
2018-03-17T10:24:54.153Z,1014.51
2018-03-17T10:26:02.980Z,1014.47
2018-03-17T10:27:12.210Z,1014.46
2018-03-17T10:28:21.040Z,1014.43
2018-03-17T10:29:29.920Z,1014.37
2018-03-17T10:30:38.697Z,1014.47
2018-03-17T10:31:47.526Z,1014.46
2018-03-17T10:32:56.453Z,1014.41
2018-03-17T10:34:05.330Z,1014.39
2018-03-17T10:35:14.107Z,1014.36
2018-03-17T10:36:22.934Z,1014.31
2018-03-17T10:37:31.761Z,1014.37
2018-03-17T10:38:40.738Z,1014.26
2018-03-17T10:39:49.598Z,1014.37
2018-03-17T10:40:58.399Z,1014.29
2018-03-17T10:42:07.225Z,1014.3
2018-03-17T10:43:16.053Z,1014.26
2018-03-17T10:44:25.296Z,1014.28
2018-03-17T10:45:34.108Z,1014.27
2018-03-17T10:46:43.214Z,1014.21
2018-03-17T10:47:52.082Z,1014.22
2018-03-17T10:49:00.868Z,1014.28
2018-03-17T10:50:09.842Z,1014.13
2018-03-17T10:51:18.674Z,1014.3
2018-03-17T10:52:27.499Z,1014.15
2018-03-17T10:53:36.336Z,1014.27
2018-03-17T10:54:45.436Z,1014.3
2018-03-17T10:55:54.267Z,1014.03
2018-03-17T10:57:03.095Z,1014.2
2018-03-17T10:58:12.205Z,1014.11
2018-03-17T10:59:21.034Z,1014.17
2018-03-17T11:00:29.861Z,1014.08
2018-03-17T11:01:38.789Z,1014.16
2018-03-17T11:02:47.618Z,1014.15
2018-03-17T11:03:56.445Z,1014.09
2018-03-17T11:05:05.273Z,1014.12
2018-03-17T11:06:14.125Z,1014.1
2018-03-17T11:07:23.417Z,1014.15
2018-03-17T11:08:32.244Z,1014.1
2018-03-17T11:09:41.172Z,1014.03
2018-03-17T11:10:50.001Z,1014.04
2018-03-17T11:11:58.829Z,1014.11
2018-03-17T11:13:07.808Z,1014.01
2018-03-17T11:14:16.635Z,1014.17
2018-03-17T11:15:25.461Z,1014.02
2018-03-17T11:16:34.564Z,1014.1
2018-03-17T11:17:43.393Z,1014.04
2018-03-17T11:18:52.220Z,1013.96
2018-03-17T11:20:01.325Z,1014
2018-03-17T11:21:10.152Z,1014.01
2018-03-17T11:22:18.982Z,1013.92
2018-03-17T11:23:27.812Z,1013.92
2018-03-17T11:24:36.740Z,1014.04
2018-03-17T11:25:45.568Z,1014
2018-03-17T11:26:54.396Z,1014.12
2018-03-17T11:28:03.225Z,1014.09
2018-03-17T11:29:12.054Z,1014.02
2018-03-17T11:30:21.032Z,1014.02
2018-03-17T11:31:29.860Z,1014.04
2018-03-17T11:32:38.690Z,1014.02
2018-03-17T11:33:47.537Z,1013.95
2018-03-17T11:34:56.348Z,1013.91
2018-03-17T11:36:05.177Z,1013.96
2018-03-17T11:37:14.560Z,1013.97
2018-03-17T11:38:23.389Z,1013.91
2018-03-17T11:39:32.219Z,1013.97
2018-03-17T11:40:41.105Z,1014.02
2018-03-17T11:41:50.156Z,1013.96
2018-03-17T11:42:58.986Z,1013.94
2018-03-17T11:44:07.817Z,1013.89
2018-03-17T11:45:16.646Z,1014.03
2018-03-17T11:46:25.476Z,1013.9
2018-03-17T11:47:34.412Z,1013.98
2018-03-17T11:48:43.244Z,1013.94
2018-03-17T11:49:52.074Z,1013.93
2018-03-17T11:51:00.906Z,1014.05
2018-03-17T11:52:09.737Z,1013.99
2018-03-17T11:53:18.718Z,1013.97
2018-03-17T11:54:27.549Z,1013.98
2018-03-17T11:55:36.378Z,1014.01
2018-03-17T11:56:45.211Z,1013.85
2018-03-17T11:57:54.043Z,1013.87
2018-03-17T11:59:02.978Z,1013.89
2018-03-17T12:00:11.807Z,1013.9
2018-03-17T12:01:20.635Z,1013.86
2018-03-17T12:02:29.465Z,1013.85
2018-03-17T12:03:38.294Z,1013.83
2018-03-17T12:04:47.525Z,1013.83
2018-03-17T12:05:56.355Z,1013.73
2018-03-17T12:07:05.745Z,1013.7
2018-03-17T12:08:14.575Z,1013.89
2018-03-17T12:09:23.407Z,1013.8
2018-03-17T12:10:32.383Z,1013.72
2018-03-17T12:11:41.216Z,1013.61
2018-03-17T12:12:50.047Z,1013.86
2018-03-17T12:13:58.874Z,1013.77
2018-03-17T12:15:07.703Z,1013.89
2018-03-17T12:16:16.635Z,1013.84
2018-03-17T12:17:25.468Z,1013.85
2018-03-17T12:18:34.305Z,1013.93
2018-03-17T12:19:43.137Z,1013.79
2018-03-17T12:20:51.977Z,1013.83
2018-03-17T12:22:00.951Z,1013.78
2018-03-17T12:23:09.785Z,1013.95
2018-03-17T12:24:18.619Z,1013.92
2018-03-17T12:25:27.452Z,1013.97
2018-03-17T12:26:36.563Z,1013.77
2018-03-17T12:27:45.600Z,1013.83
2018-03-17T12:28:54.442Z,1013.91
2018-03-17T12:30:03.273Z,1013.92
2018-03-17T12:31:12.109Z,1013.87
2018-03-17T12:32:20.938Z,1013.84
2018-03-17T12:33:29.821Z,1013.91
2018-03-17T12:34:38.656Z,1013.93
2018-03-17T12:35:47.488Z,1013.73
2018-03-17T12:36:56.320Z,1013.75
2018-03-17T12:38:05.154Z,1013.86
2018-03-17T12:39:14.325Z,1013.74
2018-03-17T12:40:23.127Z,1013.79
2018-03-17T12:41:31.960Z,1013.77
2018-03-17T12:42:40.796Z,1013.69
2018-03-17T12:43:49.630Z,1013.77
2018-03-17T12:44:58.613Z,1013.66
2018-03-17T12:46:07.448Z,1013.66
2018-03-17T12:47:16.288Z,1013.63
2018-03-17T12:48:25.116Z,1013.74
2018-03-17T12:49:33.955Z,1013.68
2018-03-17T12:50:43.169Z,1013.65
2018-03-17T12:51:52.005Z,1013.64
2018-03-17T12:53:00.843Z,1013.75
2018-03-17T12:54:09.677Z,1013.7
2018-03-17T12:55:18.514Z,1013.61
2018-03-17T12:56:27.352Z,1013.6
2018-03-17T12:57:36.187Z,1013.64
2018-03-17T12:58:45.026Z,1013.7
2018-03-17T12:59:53.862Z,1013.54
2018-03-17T13:01:02.699Z,1013.62
2018-03-17T13:02:11.839Z,1013.62
2018-03-17T13:03:20.675Z,1013.56
2018-03-17T13:04:29.510Z,1013.55
2018-03-17T13:05:38.623Z,1013.48
2018-03-17T13:06:47.463Z,1013.55
2018-03-17T13:07:56.352Z,1013.55
2018-03-17T13:09:05.191Z,1013.65
2018-03-17T13:10:14.028Z,1013.6
2018-03-17T13:11:23.150Z,1013.51
2018-03-17T13:12:31.987Z,1013.6
2018-03-17T13:13:40.928Z,1013.51
2018-03-17T13:14:49.765Z,1013.51
2018-03-17T13:15:58.602Z,1013.46
2018-03-17T13:17:07.440Z,1013.56
2018-03-17T13:18:16.279Z,1013.42
2018-03-17T13:19:25.251Z,1013.38
2018-03-17T13:20:34.929Z,1013.46
2018-03-17T13:21:43.768Z,1013.42
2018-03-17T13:22:52.887Z,1013.51
2018-03-17T13:24:01.728Z,1013.38
2018-03-17T13:25:10.561Z,1013.55
2018-03-17T13:26:19.670Z,1013.53
2018-03-17T13:27:28.506Z,1013.35
2018-03-17T13:28:37.344Z,1013.41
2018-03-17T13:29:46.176Z,1013.38
2018-03-17T13:30:55.497Z,1013.43
2018-03-17T13:32:04.332Z,1013.46
2018-03-17T13:33:13.168Z,1013.4
2018-03-17T13:34:22.001Z,1013.28
2018-03-17T13:35:30.835Z,1013.36
2018-03-17T13:36:39.720Z,1013.38
2018-03-17T13:37:48.557Z,1013.36
2018-03-17T13:38:57.389Z,1013.42
2018-03-17T13:40:06.224Z,1013.39
2018-03-17T13:41:15.055Z,1013.36
2018-03-17T13:42:23.889Z,1013.39
2018-03-17T13:43:32.722Z,1013.4
2018-03-17T13:44:41.554Z,1013.31
2018-03-17T13:45:50.662Z,1013.35
2018-03-17T13:46:59.495Z,1013.42
2018-03-17T13:48:08.429Z,1013.31
2018-03-17T13:49:17.261Z,1013.53
2018-03-17T13:50:26.133Z,1013.29
2018-03-17T13:51:35.200Z,1013.25
2018-03-17T13:52:44.316Z,1013.52
2018-03-17T13:53:53.200Z,1013.33
2018-03-17T13:55:02.037Z,1013.39
2018-03-17T13:56:10.870Z,1013.29